This is the latest recevied weather packets stored in our database for station/object KB3AWQ. If no packets are shown the sender has not sent any weather packets the latest 1 day(s).
| Time | Temp. | Humidity | Pressure | Rain* | Wind** | Luminosity | Snow |
|---|---|---|---|---|---|---|---|
| 1777999466 | 26.11° C | 47% | 1007.3 hPa | 0 mm | 0.89 m/s, 241° | 418 W/m² | - |
| 1777999167 | 26.67° C | 45% | 1007.5 hPa | 0 mm | 1.79 m/s, 244° | 410 W/m² | - |
| 1777998866 | 26.11° C | 47% | 1007.5 hPa | 0 mm | 0.89 m/s, 244° | 987 W/m² | - |
| 1777998567 | 26.11° C | 47% | 1007.5 hPa | 0 mm | 1.34 m/s, 248° | 906 W/m² | - |
| 1777998267 | 26.11° C | 46% | 1007.6 hPa | 0 mm | 1.79 m/s, 250° | 964 W/m² | - |
| 1777997967 | 25.56° C | 48% | 1007.6 hPa | 0 mm | 0.89 m/s, 245° | 830 W/m² | - |
| 1777997672 | 25.56° C | 50% | 1007.8 hPa | 0 mm | 0.89 m/s, 244° | 510 W/m² | - |
| 1777997366 | 25.56° C | 49% | 1007.9 hPa | 0 mm | 1.79 m/s, 257° | 335 W/m² | - |
| 1777997067 | 25.56° C | 48% | 1007.9 hPa | 0 mm | 1.79 m/s, 256° | 479 W/m² | - |
| 1777996767 | 25° C | 50% | 1008.1 hPa | 0 mm | 0.89 m/s, 246° | 805 W/m² | - |
| 1777996466 | 25° C | 52% | 1008.1 hPa | 0 mm | 0.45 m/s, 252° | 467 W/m² | - |
| 1777996167 | 25° C | 51% | 1008.1 hPa | 0 mm | 0.89 m/s, 263° | 914 W/m² | - |
| 1777995867 | 25° C | 50% | 1008.2 hPa | 0 mm | 0.89 m/s, 254° | 232 W/m² | - |
| 1777995567 | 25° C | 52% | 1008.2 hPa | 0 mm | 0.45 m/s, 235° | 299 W/m² | - |
| 1777995269 | 25.56° C | 49% | 1008.2 hPa | 0 mm | 1.34 m/s, 240° | 352 W/m² | - |
| 1777994967 | 25.56° C | 51% | 1008.2 hPa | 0 mm | 0.89 m/s, 246° | 880 W/m² | - |
| 1777994667 | 25.56° C | 50% | 1008.2 hPa | 0 mm | 1.34 m/s, 245° | 598 W/m² | - |
| 1777994369 | 25.56° C | 50% | 1008.2 hPa | 0 mm | 1.79 m/s, 249° | 818 W/m² | - |
| 1777994067 | 25.56° C | 50% | 1008.2 hPa | 0 mm | 1.34 m/s, 267° | 922 W/m² | - |
| 1777993768 | 25.56° C | 51% | 1008.1 hPa | 0 mm | 0.45 m/s, 240° | 550 W/m² | - |
| 1777993466 | 25.56° C | 48% | 1008.1 hPa | 0 mm | 1.34 m/s, 252° | 920 W/m² | - |
| 1777993166 | 25.56° C | 53% | 1008.1 hPa | 0 mm | 0.89 m/s, 237° | 793 W/m² | - |
| 1777992867 | 25° C | 50% | 1008.1 hPa | 0 mm | 1.79 m/s, 252° | 619 W/m² | - |
| 1777992567 | 24.44° C | 53% | 1008.1 hPa | 0 mm | 0.89 m/s, 239° | 604 W/m² | - |
| 1777992267 | 24.44° C | 54% | 1008.1 hPa | 0 mm | 0.89 m/s, 261° | 758 W/m² | - |
* Rain latest hour (hover to see other rain measurements)
** Current wind speed in m/s (hover to see current wind gust speed)